createdAt,value
2022-09-01T00:03:27.978Z,19.10
2022-09-01T00:09:25.099Z,10.10
2022-09-01T00:15:18.605Z,7.60
2022-09-01T00:21:12.413Z,11.10
2022-09-01T00:27:07.233Z,11.00
2022-09-01T00:33:00.780Z,10.80
2022-09-01T00:38:54.649Z,22.20
2022-09-01T00:44:49.488Z,30.50
2022-09-01T00:50:44.302Z,23.90
2022-09-01T00:56:57.676Z,23.40
2022-09-01T01:02:56.489Z,25.80
2022-09-01T01:09:00.857Z,29.90
2022-09-01T01:14:54.933Z,31.70
2022-09-01T01:21:08.030Z,31.10
2022-09-01T01:27:03.783Z,36.50
2022-09-01T01:32:58.210Z,66.10
2022-09-01T01:38:53.518Z,63.60
2022-09-01T01:44:49.222Z,68.00
2022-09-01T01:50:46.210Z,54.70
2022-09-01T01:56:41.632Z,55.80
2022-09-01T02:02:38.475Z,74.60
2022-09-01T02:08:31.975Z,84.80
2022-09-01T02:14:25.788Z,73.10
2022-09-01T02:20:24.874Z,72.80
2022-09-01T02:26:19.400Z,77.60
2022-09-01T02:32:22.369Z,85.60
2022-09-01T02:38:18.321Z,97.70
2022-09-01T02:44:13.012Z,99.90
2022-09-01T02:50:07.354Z,99.90
2022-09-01T02:56:02.785Z,99.90
2022-09-01T03:01:56.703Z,99.90
2022-09-01T03:07:50.354Z,99.90
2022-09-01T03:13:45.354Z,99.90
2022-09-01T03:19:45.211Z,99.90
2022-09-01T03:25:38.702Z,99.90
2022-09-01T03:31:33.418Z,99.90
2022-09-01T03:37:29.044Z,99.90
2022-09-01T03:43:27.715Z,99.90
2022-09-01T03:49:31.545Z,99.90
2022-09-01T03:55:27.651Z,99.90
2022-09-01T04:01:22.254Z,99.90
2022-09-01T04:07:19.419Z,99.90
2022-09-01T04:13:13.416Z,99.90
2022-09-01T04:19:16.352Z,99.90
2022-09-01T04:25:11.325Z,99.90
2022-09-01T04:31:08.486Z,99.90
2022-09-01T04:37:03.741Z,99.90
2022-09-01T04:42:58.362Z,99.90
2022-09-01T04:48:54.898Z,99.90
2022-09-01T04:54:49.177Z,99.90
2022-09-01T05:00:45.093Z,99.90
2022-09-01T05:06:39.879Z,99.90
2022-09-01T05:12:32.922Z,99.90
2022-09-01T05:18:28.539Z,99.90
2022-09-01T05:24:22.973Z,99.90
2022-09-01T05:30:18.318Z,99.90
2022-09-01T05:36:14.699Z,99.90
2022-09-01T05:42:09.010Z,99.90
2022-09-01T05:48:05.698Z,99.90
2022-09-01T05:54:00.467Z,99.90
2022-09-01T05:59:55.421Z,99.90
2022-09-01T06:05:52.832Z,99.90
2022-09-01T06:11:48.389Z,99.90
2022-09-01T06:17:41.744Z,99.90
2022-09-01T06:23:36.026Z,99.90
2022-09-01T06:29:31.592Z,99.90
2022-09-01T06:35:30.208Z,99.90
2022-09-01T06:41:26.384Z,99.90
2022-09-01T06:47:21.174Z,99.90
2022-09-01T06:53:32.839Z,99.90
2022-09-01T06:59:34.775Z,99.90
2022-09-01T07:12:37.348Z,99.90
2022-09-01T07:18:17.810Z,99.90
2022-09-01T07:24:16.365Z,99.90
2022-09-01T07:30:31.964Z,99.90
2022-09-01T07:42:55.655Z,99.90
2022-09-01T07:49:32.295Z,72.50
2022-09-01T07:55:28.942Z,38.20
2022-09-01T08:01:26.970Z,27.20
2022-09-01T08:07:20.668Z,12.40
2022-09-01T08:13:15.624Z,1.00
2022-09-01T08:19:16.581Z,1.00
2022-09-01T08:25:30.984Z,1.00
2022-09-01T08:31:30.609Z,1.00
2022-09-01T08:37:27.144Z,1.00
2022-09-01T08:43:27.733Z,1.00
2022-09-01T08:49:27.529Z,1.00
2022-09-01T08:55:56.778Z,1.00
2022-09-01T09:01:56.800Z,1.00
2022-09-01T09:08:11.879Z,1.00
2022-09-01T09:14:15.700Z,1.00
2022-09-01T09:20:09.548Z,1.00
2022-09-01T09:26:03.477Z,1.00
2022-09-01T09:32:06.960Z,1.00
2022-09-01T09:38:30.628Z,1.00
2022-09-01T09:44:29.368Z,1.00
2022-09-01T09:50:27.374Z,1.00
2022-09-01T09:56:24.323Z,1.00
2022-09-01T10:02:28.618Z,1.00
2022-09-01T10:08:45.319Z,1.00
2022-09-01T10:14:52.207Z,1.00
2022-09-01T10:20:53.230Z,1.00
2022-09-01T10:26:53.488Z,1.00
2022-09-01T10:32:55.327Z,1.00
2022-09-01T10:38:53.722Z,1.00
2022-09-01T10:45:02.281Z,1.00
2022-09-01T10:51:21.088Z,1.00
2022-09-01T10:57:33.204Z,1.00
2022-09-01T11:03:48.036Z,1.00
2022-09-01T11:09:48.477Z,1.00
2022-09-01T11:15:45.899Z,1.00
2022-09-01T11:21:39.570Z,1.00
2022-09-01T11:27:58.538Z,1.00
2022-09-01T11:34:10.687Z,1.00
2022-09-01T11:40:07.780Z,1.00
2022-09-01T11:46:11.671Z,1.00
2022-09-01T11:52:07.141Z,1.00
2022-09-01T11:58:00.916Z,1.00
2022-09-01T12:03:54.674Z,1.00
2022-09-01T12:09:49.701Z,1.00
2022-09-01T12:16:06.940Z,1.00
2022-09-01T12:22:05.535Z,1.00
2022-09-01T12:28:01.911Z,1.00
2022-09-01T12:33:56.906Z,1.00
2022-09-01T12:39:52.189Z,1.00
2022-09-01T12:45:48.873Z,1.00
2022-09-01T12:51:43.800Z,1.00
2022-09-01T12:57:39.362Z,1.00
2022-09-01T13:03:36.792Z,1.00
2022-09-01T13:09:30.216Z,1.00
2022-09-01T13:15:23.590Z,1.00
2022-09-01T13:21:18.261Z,1.00
2022-09-01T13:27:21.293Z,1.00
2022-09-01T13:33:19.460Z,1.00
2022-09-01T13:39:15.659Z,1.00
2022-09-01T13:45:13.379Z,1.00
2022-09-01T13:51:15.620Z,1.00
2022-09-01T13:57:15.337Z,1.00
2022-09-01T14:03:12.088Z,1.00
2022-09-01T14:09:05.146Z,1.00
2022-09-01T14:15:18.061Z,1.00
2022-09-01T14:21:15.011Z,1.00
2022-09-01T14:27:08.391Z,1.00
2022-09-01T14:33:03.887Z,1.00
2022-09-01T14:38:56.968Z,1.00
2022-09-01T14:44:50.791Z,1.00
2022-09-01T14:50:47.413Z,1.00
2022-09-01T14:56:42.062Z,1.00
2022-09-01T15:02:35.463Z,1.00
2022-09-01T15:08:30.241Z,1.00
2022-09-01T15:14:23.618Z,1.00
2022-09-01T15:20:34.001Z,1.00
2022-09-01T15:26:28.924Z,1.00
2022-09-01T15:32:27.904Z,1.00
2022-09-01T15:38:22.760Z,1.00
2022-09-01T15:44:18.938Z,1.00
2022-09-01T15:50:16.840Z,1.00
2022-09-01T15:56:15.404Z,1.00
2022-09-01T16:02:10.883Z,1.00
2022-09-01T16:08:10.014Z,1.00
2022-09-01T16:14:04.010Z,1.00
2022-09-01T16:20:03.791Z,1.00
2022-09-01T16:26:01.192Z,1.00
2022-09-01T16:31:57.309Z,1.00
2022-09-01T16:37:59.511Z,1.00
2022-09-01T16:44:01.438Z,1.00
2022-09-01T16:50:05.366Z,1.00
2022-09-01T16:56:05.472Z,1.00
2022-09-01T17:02:13.894Z,1.00
2022-09-01T17:08:15.419Z,1.00
2022-09-01T17:14:27.722Z,1.00
2022-09-01T17:20:25.697Z,1.00
2022-09-01T17:26:23.809Z,1.00
2022-09-01T17:32:48.311Z,1.00
2022-09-01T17:38:56.314Z,1.00
2022-09-01T17:44:56.727Z,1.00
2022-09-01T17:51:02.106Z,1.00
2022-09-01T17:57:02.390Z,1.00
2022-09-01T18:03:18.933Z,1.00
2022-09-01T18:09:17.808Z,1.00
2022-09-01T18:15:14.637Z,1.00
2022-09-01T18:21:12.402Z,1.00
2022-09-01T18:27:08.007Z,1.00
2022-09-01T18:33:08.565Z,1.00
2022-09-01T18:39:07.317Z,1.00
2022-09-01T18:45:08.215Z,1.00
2022-09-01T18:51:07.949Z,1.00
2022-09-01T18:57:03.295Z,1.00
2022-09-01T19:03:05.605Z,1.00
2022-09-01T19:09:12.787Z,1.00
2022-09-01T19:15:12.834Z,1.00
2022-09-01T19:21:09.314Z,1.00
2022-09-01T19:27:11.244Z,1.00
2022-09-01T19:33:06.490Z,1.00
2022-09-01T19:39:00.366Z,1.00
2022-09-01T19:45:07.136Z,1.00
2022-09-01T19:51:04.941Z,1.00
2022-09-01T19:57:03.970Z,1.00
2022-09-01T20:03:08.018Z,1.00
2022-09-01T20:09:08.550Z,1.00
2022-09-01T20:15:11.874Z,1.00
2022-09-01T20:21:18.894Z,1.00
2022-09-01T20:27:27.014Z,1.00
2022-09-01T20:33:27.184Z,1.00
2022-09-01T20:39:48.328Z,1.00
2022-09-01T20:45:42.654Z,1.00
2022-09-01T20:51:42.920Z,1.00
2022-09-01T20:57:46.445Z,1.00
2022-09-01T21:03:47.643Z,1.00
2022-09-01T21:09:58.439Z,1.00
2022-09-01T21:16:00.645Z,1.00
2022-09-01T21:22:06.206Z,1.00
2022-09-01T21:28:02.143Z,1.00
2022-09-01T21:33:56.895Z,1.00
2022-09-01T21:39:53.452Z,1.00
2022-09-01T21:45:47.427Z,1.00
2022-09-01T21:51:42.475Z,1.00
2022-09-01T21:57:36.862Z,1.00
2022-09-01T22:03:30.344Z,1.00
2022-09-01T22:09:25.116Z,1.00
2022-09-01T22:15:21.419Z,1.00
2022-09-01T22:21:16.034Z,1.00
2022-09-01T22:27:10.746Z,1.00
2022-09-01T22:33:05.920Z,1.00
2022-09-01T22:39:00.347Z,1.00
2022-09-01T22:44:55.157Z,1.00
2022-09-01T22:50:50.091Z,1.00
2022-09-01T22:56:46.014Z,1.00
2022-09-01T23:02:40.474Z,1.00
2022-09-01T23:08:35.543Z,1.00
2022-09-01T23:14:29.694Z,1.00
2022-09-01T23:20:24.516Z,1.00
2022-09-01T23:26:18.153Z,1.00
2022-09-01T23:32:11.579Z,1.00
2022-09-01T23:38:06.302Z,1.00
2022-09-01T23:44:01.849Z,1.00
2022-09-01T23:49:56.742Z,1.00
2022-09-01T23:55:53.185Z,1.00
